sensor_id;sensor_type;location;lat;lon;timestamp;pressure;altitude;pressure_sealevel;temperature;humidity
46614;BME280;32338;50.430;6.806;2023-08-30T00:00:53;66697.66;;;11.71;100.00
46614;BME280;32338;50.430;6.806;2023-08-30T00:03:20;66707.03;;;11.77;100.00
46614;BME280;32338;50.430;6.806;2023-08-30T00:05:46;66709.50;;;11.82;100.00
46614;BME280;32338;50.430;6.806;2023-08-30T00:08:13;66726.59;;;11.93;100.00
46614;BME280;32338;50.430;6.806;2023-08-30T00:10:43;66726.63;;;12.00;100.00
46614;BME280;32338;50.430;6.806;2023-08-30T00:13:11;66711.94;;;11.87;100.00
46614;BME280;32338;50.430;6.806;2023-08-30T00:15:38;66711.53;;;11.81;100.00
46614;BME280;32338;50.430;6.806;2023-08-30T00:18:05;66708.16;;;11.78;100.00
46614;BME280;32338;50.430;6.806;2023-08-30T00:20:34;66708.91;;;11.81;100.00
46614;BME280;32338;50.430;6.806;2023-08-30T00:23:01;66713.22;;;11.83;100.00
46614;BME280;32338;50.430;6.806;2023-08-30T00:25:28;66701.59;;;11.75;100.00
46614;BME280;32338;50.430;6.806;2023-08-30T00:27:55;66703.28;;;11.76;100.00
46614;BME280;32338;50.430;6.806;2023-08-30T00:30:23;66705.53;;;11.78;100.00
46614;BME280;32338;50.430;6.806;2023-08-30T00:32:49;66707.78;;;11.80;100.00
46614;BME280;32338;50.430;6.806;2023-08-30T00:35:16;66710.59;;;11.83;100.00
46614;BME280;32338;50.430;6.806;2023-08-30T00:37:42;66700.28;;;11.71;100.00
46614;BME280;32338;50.430;6.806;2023-08-30T00:40:10;66695.56;;;11.64;100.00
46614;BME280;32338;50.430;6.806;2023-08-30T00:42:36;66698.78;;;11.72;100.00
46614;BME280;32338;50.430;6.806;2023-08-30T00:45:04;66712.13;;;11.82;100.00
46614;BME280;32338;50.430;6.806;2023-08-30T00:47:32;66706.50;;;11.77;100.00
46614;BME280;32338;50.430;6.806;2023-08-30T00:50:00;66700.47;;;11.74;100.00
46614;BME280;32338;50.430;6.806;2023-08-30T00:52:27;66697.09;;;11.71;100.00
46614;BME280;32338;50.430;6.806;2023-08-30T00:54:53;66694.44;;;11.63;100.00
46614;BME280;32338;50.430;6.806;2023-08-30T00:57:20;66675.09;;;11.50;100.00
46614;BME280;32338;50.430;6.806;2023-08-30T00:59:47;66670.19;;;11.41;100.00
46614;BME280;32338;50.430;6.806;2023-08-30T01:02:14;66664.00;;;11.35;100.00
46614;BME280;32338;50.430;6.806;2023-08-30T01:04:42;66665.50;;;11.42;100.00
46614;BME280;32338;50.430;6.806;2023-08-30T01:07:09;66679.78;;;11.50;100.00
46614;BME280;32338;50.430;6.806;2023-08-30T01:09:36;66682.03;;;11.52;100.00
46614;BME280;32338;50.430;6.806;2023-08-30T01:12:05;66673.38;;;11.49;100.00
46614;BME280;32338;50.430;6.806;2023-08-30T01:14:38;66668.31;;;11.44;100.00
46614;BME280;32338;50.430;6.806;2023-08-30T01:17:08;66680.16;;;11.55;100.00
46614;BME280;32338;50.430;6.806;2023-08-30T01:19:45;66695.56;;;11.64;100.00
46614;BME280;32338;50.430;6.806;2023-08-30T01:22:17;66692.00;;;11.66;100.00
46614;BME280;32338;50.430;6.806;2023-08-30T01:24:55;66686.75;;;11.66;100.00
46614;BME280;32338;50.430;6.806;2023-08-30T01:27:25;66671.69;;;11.47;100.00
46614;BME280;32338;50.430;6.806;2023-08-30T01:29:56;66657.97;;;11.32;100.00
46614;BME280;32338;50.430;6.806;2023-08-30T01:32:24;66636.94;;;11.18;100.00
46614;BME280;32338;50.430;6.806;2023-08-30T01:34:54;66640.28;;;11.14;100.00
46614;BME280;32338;50.430;6.806;2023-08-30T01:37:22;66641.97;;;11.15;100.00
46614;BME280;32338;50.430;6.806;2023-08-30T01:39:49;66636.53;;;11.13;100.00
46614;BME280;32338;50.430;6.806;2023-08-30T01:42:16;66628.09;;;11.05;100.00
46614;BME280;32338;50.430;6.806;2023-08-30T01:44:49;66611.75;;;10.90;100.00
46614;BME280;32338;50.430;6.806;2023-08-30T01:47:17;66605.91;;;10.82;100.00
46614;BME280;32338;50.430;6.806;2023-08-30T01:49:45;66607.78;;;10.86;100.00
46614;BME280;32338;50.430;6.806;2023-08-30T01:52:13;66629.03;;;11.03;100.00
46614;BME280;32338;50.430;6.806;2023-08-30T01:54:40;66647.25;;;11.23;100.00
46614;BME280;32338;50.430;6.806;2023-08-30T01:57:07;66663.59;;;11.38;100.00
46614;BME280;32338;50.430;6.806;2023-08-30T01:59:34;66671.13;;;11.40;100.00
46614;BME280;32338;50.430;6.806;2023-08-30T02:02:02;66657.03;;;11.34;100.00
46614;BME280;32338;50.430;6.806;2023-08-30T02:04:29;66655.16;;;11.30;100.00
46614;BME280;32338;50.430;6.806;2023-08-30T02:07:00;66641.06;;;11.17;100.00
46614;BME280;32338;50.430;6.806;2023-08-30T02:09:33;66628.66;;;11.06;100.00
46614;BME280;32338;50.430;6.806;2023-08-30T02:12:04;66614.56;;;10.93;100.00
46614;BME280;32338;50.430;6.806;2023-08-30T02:14:34;66608.94;;;10.87;100.00
46614;BME280;32338;50.430;6.806;2023-08-30T02:17:03;66605.56;;;10.84;100.00
46614;BME280;32338;50.430;6.806;2023-08-30T02:19:31;66591.44;;;10.71;100.00
46614;BME280;32338;50.430;6.806;2023-08-30T02:21:58;66566.84;;;10.51;100.00
46614;BME280;32338;50.430;6.806;2023-08-30T02:24:25;66556.91;;;10.45;100.00
46614;BME280;32338;50.430;6.806;2023-08-30T02:26:52;66564.63;;;10.49;100.00
46614;BME280;32338;50.430;6.806;2023-08-30T02:29:18;66572.50;;;10.57;100.00
46614;BME280;32338;50.430;6.806;2023-08-30T02:31:45;66574.91;;;10.54;100.00
46614;BME280;32338;50.430;6.806;2023-08-30T02:34:13;66569.84;;;10.49;100.00
46614;BME280;32338;50.430;6.806;2023-08-30T02:36:39;66552.56;;;10.36;100.00
46614;BME280;32338;50.430;6.806;2023-08-30T02:39:06;66546.00;;;10.32;100.00
46614;BME280;32338;50.430;6.806;2023-08-30T02:41:32;66548.97;;;10.30;100.00
46614;BME280;32338;50.430;6.806;2023-08-30T02:43:59;66550.88;;;10.34;100.00
46614;BME280;32338;50.430;6.806;2023-08-30T02:46:26;66565.34;;;10.45;100.00
46614;BME280;32338;50.430;6.806;2023-08-30T02:48:52;66555.75;;;10.36;100.00
46614;BME280;32338;50.430;6.806;2023-08-30T02:51:21;66527.19;;;10.13;100.00
46614;BME280;32338;50.430;6.806;2023-08-30T02:53:48;66508.44;;;9.93;100.00
46614;BME280;32338;50.430;6.806;2023-08-30T02:56:14;66491.53;;;9.78;100.00
46614;BME280;32338;50.430;6.806;2023-08-30T02:58:41;66482.53;;;9.69;100.00
46614;BME280;32338;50.430;6.806;2023-08-30T03:01:08;66462.09;;;9.55;100.00
46614;BME280;32338;50.430;6.806;2023-08-30T03:03:34;66454.00;;;9.46;100.00
46614;BME280;32338;50.430;6.806;2023-08-30T03:06:01;66453.25;;;9.43;100.00
46614;BME280;32338;50.430;6.806;2023-08-30T03:08:29;66455.34;;;9.49;100.00
46614;BME280;32338;50.430;6.806;2023-08-30T03:11:06;66475.97;;;9.66;100.00
46614;BME280;32338;50.430;6.806;2023-08-30T03:13:33;66500.53;;;9.86;100.00
46614;BME280;32338;50.430;6.806;2023-08-30T03:15:59;66495.31;;;9.86;100.00
46614;BME280;32338;50.430;6.806;2023-08-30T03:18:26;66480.47;;;9.70;100.00
46614;BME280;32338;50.430;6.806;2023-08-30T03:20:59;66470.88;;;9.61;100.00
46614;BME280;32338;50.430;6.806;2023-08-30T03:23:26;66454.38;;;9.44;100.00
46614;BME280;32338;50.430;6.806;2023-08-30T03:25:54;66442.75;;;9.35;100.00
46614;BME280;32338;50.430;6.806;2023-08-30T03:28:21;66448.00;;;9.43;100.00
46614;BME280;32338;50.430;6.806;2023-08-30T03:30:48;66458.69;;;9.52;100.00
46614;BME280;32338;50.430;6.806;2023-08-30T03:33:14;66469.97;;;9.63;100.00
46614;BME280;32338;50.430;6.806;2023-08-30T03:35:41;66475.41;;;9.65;100.00
46614;BME280;32338;50.430;6.806;2023-08-30T03:38:07;66475.97;;;9.66;100.00
46614;BME280;32338;50.430;6.806;2023-08-30T03:40:34;66472.78;;;9.65;100.00
46614;BME280;32338;50.430;6.806;2023-08-30T03:43:02;66472.38;;;9.60;100.00
46614;BME280;32338;50.430;6.806;2023-08-30T03:45:29;66461.69;;;9.50;100.00
46614;BME280;32338;50.430;6.806;2023-08-30T03:47:56;66446.13;;;9.38;100.00
46614;BME280;32338;50.430;6.806;2023-08-30T03:50:22;66455.69;;;9.47;100.00
46614;BME280;32338;50.430;6.806;2023-08-30T03:52:49;66456.25;;;9.48;100.00
46614;BME280;32338;50.430;6.806;2023-08-30T03:55:15;66447.25;;;9.39;100.00
46614;BME280;32338;50.430;6.806;2023-08-30T03:57:42;66438.03;;;9.29;100.00
46614;BME280;32338;50.430;6.806;2023-08-30T04:00:11;66422.09;;;9.19;100.00
46614;BME280;32338;50.430;6.806;2023-08-30T04:02:37;66422.88;;;9.22;100.00
46614;BME280;32338;50.430;6.806;2023-08-30T04:05:04;66437.13;;;9.30;100.00
46614;BME280;32338;50.430;6.806;2023-08-30T04:07:35;66433.38;;;9.29;100.00
46614;BME280;32338;50.430;6.806;2023-08-30T04:10:02;66442.38;;;9.30;100.00
46614;BME280;32338;50.430;6.806;2023-08-30T04:12:32;66443.13;;;9.33;100.00
46614;BME280;32338;50.430;6.806;2023-08-30T04:14:59;66423.63;;;9.18;100.00
46614;BME280;32338;50.430;6.806;2023-08-30T04:17:27;66407.28;;;9.03;100.00
46614;BME280;32338;50.430;6.806;2023-08-30T04:19:54;66389.84;;;8.87;100.00
46614;BME280;32338;50.430;6.806;2023-08-30T04:22:20;66373.72;;;8.74;100.00
46614;BME280;32338;50.430;6.806;2023-08-30T04:24:47;66363.63;;;8.65;100.00
46614;BME280;32338;50.430;6.806;2023-08-30T04:27:13;66384.03;;;8.79;100.00
46614;BME280;32338;50.430;6.806;2023-08-30T04:29:40;66398.88;;;8.95;100.00
46614;BME280;32338;50.430;6.806;2023-08-30T04:32:10;66390.59;;;8.90;100.00
46614;BME280;32338;50.430;6.806;2023-08-30T04:34:38;66394.91;;;8.91;100.00
46614;BME280;32338;50.430;6.806;2023-08-30T04:37:04;66380.44;;;8.73;100.00
46614;BME280;32338;50.430;6.806;2023-08-30T04:39:31;66348.97;;;8.52;100.00
46614;BME280;32338;50.430;6.806;2023-08-30T04:41:57;66344.63;;;8.43;100.00
46614;BME280;32338;50.430;6.806;2023-08-30T04:44:24;66349.34;;;8.50;100.00
46614;BME280;32338;50.430;6.806;2023-08-30T04:46:53;66361.34;;;8.63;100.00
46614;BME280;32338;50.430;6.806;2023-08-30T04:49:20;66373.53;;;8.72;100.00
46614;BME280;32338;50.430;6.806;2023-08-30T04:51:48;66378.97;;;8.74;100.00
46614;BME280;32338;50.430;6.806;2023-08-30T04:54:15;66362.09;;;8.59;100.00
46614;BME280;32338;50.430;6.806;2023-08-30T04:56:42;66357.56;;;8.55;100.00
46614;BME280;32338;50.430;6.806;2023-08-30T04:59:08;66357.03;;;8.54;100.00
46614;BME280;32338;50.430;6.806;2023-08-30T05:01:35;66341.25;;;8.40;100.00
46614;BME280;32338;50.430;6.806;2023-08-30T05:04:03;66333.78;;;8.38;100.00
46614;BME280;32338;50.430;6.806;2023-08-30T05:06:30;66346.16;;;8.49;100.00
46614;BME280;32338;50.430;6.806;2023-08-30T05:08:58;66344.81;;;8.46;100.00
46614;BME280;32338;50.430;6.806;2023-08-30T05:11:25;66348.22;;;8.49;100.00
46614;BME280;32338;50.430;6.806;2023-08-30T05:13:52;66360.03;;;8.59;100.00
46614;BME280;32338;50.430;6.806;2023-08-30T05:16:18;66350.66;;;8.53;100.00
46614;BME280;32338;50.430;6.806;2023-08-30T05:18:45;66350.66;;;8.53;100.00
46614;BME280;32338;50.430;6.806;2023-08-30T05:21:13;66347.31;;;8.50;100.00
46614;BME280;32338;50.430;6.806;2023-08-30T05:23:40;66347.09;;;8.48;100.00
46614;BME280;32338;50.430;6.806;2023-08-30T05:26:08;66358.69;;;8.56;100.00
46614;BME280;32338;50.430;6.806;2023-08-30T05:28:35;66354.59;;;8.57;100.00
46614;BME280;32338;50.430;6.806;2023-08-30T05:31:02;66362.09;;;8.59;100.00
46614;BME280;32338;50.430;6.806;2023-08-30T05:33:28;66365.47;;;8.62;100.00
46614;BME280;32338;50.430;6.806;2023-08-30T05:35:55;66365.66;;;8.65;100.00
46614;BME280;32338;50.430;6.806;2023-08-30T05:38:21;66374.47;;;8.70;100.00
46614;BME280;32338;50.430;6.806;2023-08-30T05:40:48;66366.22;;;8.65;100.00
46614;BME280;32338;50.430;6.806;2023-08-30T05:43:16;66368.09;;;8.69;100.00
46614;BME280;32338;50.430;6.806;2023-08-30T05:45:43;66360.59;;;8.60;100.00
46614;BME280;32338;50.430;6.806;2023-08-30T05:48:10;66377.63;;;8.71;100.00
46614;BME280;32338;50.430;6.806;2023-08-30T05:50:36;66361.91;;;8.64;100.00
46614;BME280;32338;50.430;6.806;2023-08-30T05:53:03;66365.47;;;8.62;100.00
46614;BME280;32338;50.430;6.806;2023-08-30T05:55:30;66363.19;;;8.60;100.00
46614;BME280;32338;50.430;6.806;2023-08-30T05:57:56;66351.03;;;8.51;100.00
46614;BME280;32338;50.430;6.806;2023-08-30T06:00:24;66371.06;;;8.67;100.00
46614;BME280;32338;50.430;6.806;2023-08-30T06:02:52;66383.28;;;8.83;100.00
46614;BME280;32338;50.430;6.806;2023-08-30T06:05:18;66395.31;;;8.97;100.00
46614;BME280;32338;50.430;6.806;2023-08-30T06:07:45;66410.09;;;9.05;100.00
46614;BME280;32338;50.430;6.806;2023-08-30T06:10:12;66424.53;;;9.16;100.00
46614;BME280;32338;50.430;6.806;2023-08-30T06:12:39;66430.56;;;9.27;100.00
46614;BME280;32338;50.430;6.806;2023-08-30T06:15:06;66444.84;;;9.42;100.00
46614;BME280;32338;50.430;6.806;2023-08-30T06:17:34;66451.94;;;9.46;100.00
46614;BME280;32338;50.430;6.806;2023-08-30T06:20:01;66460.38;;;9.47;100.00
46614;BME280;32338;50.430;6.806;2023-08-30T06:22:28;66465.09;;;9.61;100.00
46614;BME280;32338;50.430;6.806;2023-08-30T06:24:54;66473.34;;;9.66;100.00
46614;BME280;32338;50.430;6.806;2023-08-30T06:27:21;66487.59;;;9.81;100.00
46614;BME280;32338;50.430;6.806;2023-08-30T06:29:48;66490.44;;;9.84;100.00
46614;BME280;32338;50.430;6.806;2023-08-30T06:32:14;66503.00;;;9.90;100.00
46614;BME280;32338;50.430;6.806;2023-08-30T06:34:42;66501.50;;;9.92;100.00
46614;BME280;32338;50.430;6.806;2023-08-30T06:37:09;66518.94;;;10.07;100.00
46614;BME280;32338;50.430;6.806;2023-08-30T06:39:35;66529.47;;;10.15;100.00
46614;BME280;32338;50.430;6.806;2023-08-30T06:42:02;66511.09;;;10.00;100.00
46614;BME280;32338;50.430;6.806;2023-08-30T06:44:29;66516.31;;;10.00;100.00
46614;BME280;32338;50.430;6.806;2023-08-30T06:46:56;66520.47;;;10.06;100.00
46614;BME280;32338;50.430;6.806;2023-08-30T06:49:22;66530.78;;;10.18;100.00
46614;BME280;32338;50.430;6.806;2023-08-30T06:51:50;66538.66;;;10.18;100.00
46614;BME280;32338;50.430;6.806;2023-08-30T06:54:17;66538.47;;;10.23;100.00
46614;BME280;32338;50.430;6.806;2023-08-30T06:56:56;66543.38;;;10.32;100.00
46614;BME280;32338;50.430;6.806;2023-08-30T06:59:23;66557.28;;;10.43;100.00
46614;BME280;32338;50.430;6.806;2023-08-30T07:01:50;66582.25;;;10.61;100.00
46614;BME280;32338;50.430;6.806;2023-08-30T07:04:16;66584.91;;;10.68;100.00
46614;BME280;32338;50.430;6.806;2023-08-30T07:06:43;66592.78;;;10.75;100.00
46614;BME280;32338;50.430;6.806;2023-08-30T07:09:11;66583.56;;;10.64;100.00
46614;BME280;32338;50.430;6.806;2023-08-30T07:11:38;66595.97;;;10.76;100.00
46614;BME280;32338;50.430;6.806;2023-08-30T07:14:04;66611.38;;;10.92;100.00
46614;BME280;32338;50.430;6.806;2023-08-30T07:16:31;66626.59;;;11.06;100.00
46614;BME280;32338;50.430;6.806;2023-08-30T07:18:58;66627.91;;;11.10;100.00
46614;BME280;32338;50.430;6.806;2023-08-30T07:21:25;66663.59;;;11.30;100.00
46614;BME280;32338;50.430;6.806;2023-08-30T07:23:52;66671.69;;;11.47;100.00
46614;BME280;32338;50.430;6.806;2023-08-30T07:26:20;66679.41;;;11.52;100.00
46614;BME280;32338;50.430;6.806;2023-08-30T07:28:46;66695.38;;;11.69;100.00
46614;BME280;32338;50.430;6.806;2023-08-30T07:31:13;66723.22;;;11.90;100.00
46614;BME280;32338;50.430;6.806;2023-08-30T07:33:41;66717.56;;;11.92;100.00
46614;BME280;32338;50.430;6.806;2023-08-30T07:36:08;66739.22;;;12.07;100.00
46614;BME280;32338;50.430;6.806;2023-08-30T07:38:34;66741.47;;;12.09;100.00
46614;BME280;32338;50.430;6.806;2023-08-30T07:41:01;66736.22;;;12.09;100.00
46614;BME280;32338;50.430;6.806;2023-08-30T07:43:29;66756.69;;;12.23;100.00
46614;BME280;32338;50.430;6.806;2023-08-30T07:45:56;66789.63;;;12.55;100.00
46614;BME280;32338;50.430;6.806;2023-08-30T07:48:22;66801.84;;;12.64;100.00
46614;BME280;32338;50.430;6.806;2023-08-30T07:50:49;66810.50;;;12.74;100.00
46614;BME280;32338;50.430;6.806;2023-08-30T07:53:16;66820.09;;;12.83;100.00
46614;BME280;32338;50.430;6.806;2023-08-30T07:55:42;66822.75;;;12.83;100.00
46614;BME280;32338;50.430;6.806;2023-08-30T07:58:09;66842.50;;;13.01;100.00
46614;BME280;32338;50.430;6.806;2023-08-30T08:00:37;66856.63;;;13.14;100.00
46614;BME280;32338;50.430;6.806;2023-08-30T08:03:04;66854.94;;;13.12;100.00
46614;BME280;32338;50.430;6.806;2023-08-30T08:05:30;66858.72;;;13.21;100.00
46614;BME280;32338;50.430;6.806;2023-08-30T08:08:00;66882.97;;;13.36;100.00
46614;BME280;32338;50.430;6.806;2023-08-30T08:10:27;66869.81;;;13.28;100.00
46614;BME280;32338;50.430;6.806;2023-08-30T08:12:54;66881.88;;;13.42;100.00
46614;BME280;32338;50.430;6.806;2023-08-30T08:15:20;66885.63;;;13.43;100.00
46614;BME280;32338;50.430;6.806;2023-08-30T08:17:48;66905.97;;;13.61;100.00
46614;BME280;32338;50.430;6.806;2023-08-30T08:20:15;66933.09;;;13.86;100.00
46614;BME280;32338;50.430;6.806;2023-08-30T08:22:42;66942.13;;;13.94;100.00
46614;BME280;32338;50.430;6.806;2023-08-30T08:25:09;66942.69;;;13.95;100.00
46614;BME280;32338;50.430;6.806;2023-08-30T08:27:35;66931.97;;;13.85;100.00
46614;BME280;32338;50.430;6.806;2023-08-30T08:30:03;66939.88;;;13.92;100.00
46614;BME280;32338;50.430;6.806;2023-08-30T08:32:30;66940.44;;;13.93;100.00
46614;BME280;32338;50.430;6.806;2023-08-30T08:34:58;66945.16;;;13.92;100.00
46614;BME280;32338;50.430;6.806;2023-08-30T08:37:25;66945.53;;;13.98;100.00
46614;BME280;32338;50.430;6.806;2023-08-30T08:39:51;66966.25;;;14.14;100.00
46614;BME280;32338;50.430;6.806;2023-08-30T08:42:19;66951.91;;;14.06;100.00
46614;BME280;32338;50.430;6.806;2023-08-30T08:44:46;66940.44;;;13.93;100.00
46614;BME280;32338;50.430;6.806;2023-08-30T08:47:15;66965.69;;;14.14;100.00
46614;BME280;32338;50.430;6.806;2023-08-30T08:49:42;66960.41;;;14.14;100.00
46614;BME280;32338;50.430;6.806;2023-08-30T08:52:10;66977.72;;;14.27;100.00
46614;BME280;32338;50.430;6.806;2023-08-30T08:54:38;66998.66;;;14.46;100.00
46614;BME280;32338;50.430;6.806;2023-08-30T08:57:06;67025.25;;;14.70;100.00
46614;BME280;32338;50.430;6.806;2023-08-30T08:59:33;67000.72;;;14.46;100.00
46614;BME280;32338;50.430;6.806;2023-08-30T09:02:00;67006.94;;;14.51;100.00
46614;BME280;32338;50.430;6.806;2023-08-30T09:04:30;67015.44;;;14.59;100.00
46614;BME280;32338;50.430;6.806;2023-08-30T09:06:58;67004.50;;;14.54;100.00
46614;BME280;32338;50.430;6.806;2023-08-30T09:09:26;67022.78;;;14.66;100.00
46614;BME280;32338;50.430;6.806;2023-08-30T09:11:53;67028.84;;;14.76;100.00
46614;BME280;32338;50.430;6.806;2023-08-30T09:14:20;67049.19;;;14.95;100.00
46614;BME280;32338;50.430;6.806;2023-08-30T09:16:54;67039.94;;;14.77;100.00
46614;BME280;32338;50.430;6.806;2023-08-30T09:19:21;67064.66;;;15.04;100.00
46614;BME280;32338;50.430;6.806;2023-08-30T09:21:51;67084.63;;;15.24;100.00
46614;BME280;32338;50.430;6.806;2023-08-30T09:24:18;67068.03;;;15.07;100.00
46614;BME280;32338;50.430;6.806;2023-08-30T09:26:49;67053.13;;;14.98;100.00
46614;BME280;32338;50.430;6.806;2023-08-30T09:29:17;67048.81;;;14.89;100.00
46614;BME280;32338;50.430;6.806;2023-08-30T09:31:45;67093.31;;;15.28;100.00
46614;BME280;32338;50.430;6.806;2023-08-30T09:34:11;67103.50;;;15.37;100.00
46614;BME280;32338;50.430;6.806;2023-08-30T09:36:39;67056.34;;;14.99;100.00
46614;BME280;32338;50.430;6.806;2023-08-30T09:39:08;67052.78;;;14.93;100.00
46614;BME280;32338;50.430;6.806;2023-08-30T09:41:35;67052.94;;;14.96;100.00
46614;BME280;32338;50.430;6.806;2023-08-30T09:44:09;67058.59;;;15.01;100.00
46614;BME280;32338;50.430;6.806;2023-08-30T09:46:42;67034.84;;;14.79;100.00
46614;BME280;32338;50.430;6.806;2023-08-30T09:49:10;67051.81;;;14.95;100.00
46614;BME280;32338;50.430;6.806;2023-08-30T09:51:38;67074.44;;;15.15;100.00
46614;BME280;32338;50.430;6.806;2023-08-30T09:54:13;67088.97;;;15.26;100.00
46614;BME280;32338;50.430;6.806;2023-08-30T09:56:41;67116.69;;;15.51;100.00
46614;BME280;32338;50.430;6.806;2023-08-30T09:59:09;67095.19;;;15.32;100.00
46614;BME280;32338;50.430;6.806;2023-08-30T10:01:36;67093.50;;;15.30;100.00
46614;BME280;32338;50.430;6.806;2023-08-30T10:04:04;67104.06;;;15.37;100.00
46614;BME280;32338;50.430;6.806;2023-08-30T10:06:32;67117.63;;;15.50;100.00
46614;BME280;32338;50.430;6.806;2023-08-30T10:08:59;67108.22;;;15.44;100.00
46614;BME280;32338;50.430;6.806;2023-08-30T10:11:29;67090.69;;;15.28;100.00
46614;BME280;32338;50.430;6.806;2023-08-30T10:13:57;67101.97;;;15.38;100.00
46614;BME280;32338;50.430;6.806;2023-08-30T10:16:26;67116.31;;;15.53;100.00
46614;BME280;32338;50.430;6.806;2023-08-30T10:18:59;67107.09;;;15.43;100.00
46614;BME280;32338;50.430;6.806;2023-08-30T10:21:28;67104.25;;;15.40;100.00
46614;BME280;32338;50.430;6.806;2023-08-30T10:23:56;67104.44;;;15.43;100.00
46614;BME280;32338;50.430;6.806;2023-08-30T10:26:26;67088.41;;;15.26;100.00
46614;BME280;32338;50.430;6.806;2023-08-30T10:28:56;67073.13;;;15.12;100.00
46614;BME280;32338;50.430;6.806;2023-08-30T10:31:23;67068.41;;;15.12;100.00
46614;BME280;32338;50.430;6.806;2023-08-30T10:33:53;67091.78;;;15.36;100.00
46614;BME280;32338;50.430;6.806;2023-08-30T10:36:21;67111.03;;;15.46;100.00
46614;BME280;32338;50.430;6.806;2023-08-30T10:38:49;67141.03;;;15.73;100.00
46614;BME280;32338;50.430;6.806;2023-08-30T10:41:20;67125.38;;;15.62;100.00
46614;BME280;32338;50.430;6.806;2023-08-30T10:43:50;67144.59;;;15.79;100.00
46614;BME280;32338;50.430;6.806;2023-08-30T10:46:16;67175.59;;;16.05;100.00
46614;BME280;32338;50.430;6.806;2023-08-30T10:48:43;67187.81;;;16.21;100.00
46614;BME280;32338;50.430;6.806;2023-08-30T10:51:22;67196.72;;;16.27;100.00
46614;BME280;32338;50.430;6.806;2023-08-30T10:54:00;67175.19;;;16.07;100.00
46614;BME280;32338;50.430;6.806;2023-08-30T10:56:28;67190.28;;;16.18;100.00
46614;BME280;32338;50.430;6.806;2023-08-30T10:58:55;67193.69;;;16.21;100.00
46614;BME280;32338;50.430;6.806;2023-08-30T11:01:23;67159.34;;;15.93;100.00
46614;BME280;32338;50.430;6.806;2023-08-30T11:03:50;67138.19;;;15.71;100.00
46614;BME280;32338;50.430;6.806;2023-08-30T11:06:17;67146.88;;;15.74;100.00
46614;BME280;32338;50.430;6.806;2023-08-30T11:08:47;67157.28;;;15.86;100.00
46614;BME280;32338;50.430;6.806;2023-08-30T11:11:14;67135.53;;;15.71;100.00
46614;BME280;32338;50.430;6.806;2023-08-30T11:13:41;67151.25;;;15.83;100.00
46614;BME280;32338;50.430;6.806;2023-08-30T11:16:07;67128.75;;;15.65;100.00
46614;BME280;32338;50.430;6.806;2023-08-30T11:18:37;67153.13;;;15.87;100.00
46614;BME280;32338;50.430;6.806;2023-08-30T11:21:05;67162.91;;;15.98;100.00
46614;BME280;32338;50.430;6.806;2023-08-30T11:23:33;67145.56;;;15.78;100.00
46614;BME280;32338;50.430;6.806;2023-08-30T11:26:01;67175.19;;;16.07;100.00
46614;BME280;32338;50.430;6.806;2023-08-30T11:28:29;67168.03;;;16.03;100.00
46614;BME280;32338;50.430;6.806;2023-08-30T11:30:56;67174.44;;;16.04;100.00
46614;BME280;32338;50.430;6.806;2023-08-30T11:33:22;67134.44;;;15.70;100.00
46614;BME280;32338;50.430;6.806;2023-08-30T11:35:51;67104.63;;;15.45;100.00
46614;BME280;32338;50.430;6.806;2023-08-30T11:38:18;67127.25;;;15.66;100.00
46614;BME280;32338;50.430;6.806;2023-08-30T11:40:45;67131.78;;;15.70;100.00
46614;BME280;32338;50.430;6.806;2023-08-30T11:43:16;67129.88;;;15.66;100.00
46614;BME280;32338;50.430;6.806;2023-08-30T11:45:43;67117.84;;;15.52;100.00
46614;BME280;32338;50.430;6.806;2023-08-30T11:48:09;67100.66;;;15.42;100.00
46614;BME280;32338;50.430;6.806;2023-08-30T11:50:36;67100.84;;;15.37;100.00
46614;BME280;32338;50.430;6.806;2023-08-30T11:53:03;67073.50;;;15.17;100.00
46614;BME280;32338;50.430;6.806;2023-08-30T11:55:30;67059.75;;;15.02;100.00
46614;BME280;32338;50.430;6.806;2023-08-30T11:57:56;67045.41;;;14.86;100.00
46614;BME280;32338;50.430;6.806;2023-08-30T12:00:24;67004.09;;;14.56;100.00
46614;BME280;32338;50.430;6.806;2023-08-30T12:02:51;66993.75;;;14.44;100.00
46614;BME280;32338;50.430;6.806;2023-08-30T12:05:18;67012.97;;;14.62;100.00
46614;BME280;32338;50.430;6.806;2023-08-30T12:07:46;66980.56;;;14.30;100.00
46614;BME280;32338;50.430;6.806;2023-08-30T12:10:12;66997.91;;;14.43;100.00
46614;BME280;32338;50.430;6.806;2023-08-30T12:12:44;66983.41;;;14.32;100.00
46614;BME280;32338;50.430;6.806;2023-08-30T12:15:12;67016.38;;;14.65;100.00
46614;BME280;32338;50.430;6.806;2023-08-30T12:17:41;67052.78;;;14.93;100.00
46614;BME280;32338;50.430;6.806;2023-08-30T12:20:14;67088.03;;;15.28;100.00
46614;BME280;32338;50.430;6.806;2023-08-30T12:22:41;67137.44;;;15.75;100.00
46614;BME280;32338;50.430;6.806;2023-08-30T12:25:18;67171.81;;;16.04;100.00
46614;BME280;32338;50.430;6.806;2023-08-30T12:27:45;67135.34;;;15.68;100.00
46614;BME280;32338;50.430;6.806;2023-08-30T12:30:13;67125.00;;;15.56;100.00
46614;BME280;32338;50.430;6.806;2023-08-30T12:32:41;67109.91;;;15.52;100.00
46614;BME280;32338;50.430;6.806;2023-08-30T12:35:08;67116.31;;;15.53;100.00
46614;BME280;32338;50.430;6.806;2023-08-30T12:37:35;67117.44;;;15.54;100.00
46614;BME280;32338;50.430;6.806;2023-08-30T12:40:02;67139.31;;;15.72;100.00
46614;BME280;32338;50.430;6.806;2023-08-30T12:42:28;67129.88;;;15.66;100.00
46614;BME280;32338;50.430;6.806;2023-08-30T12:44:55;67119.72;;;15.56;100.00
46614;BME280;32338;50.430;6.806;2023-08-30T12:47:22;67103.50;;;15.37;100.00
46614;BME280;32338;50.430;6.806;2023-08-30T12:49:49;67086.53;;;15.29;100.00
46614;BME280;32338;50.430;6.806;2023-08-30T12:52:16;67065.97;;;15.07;100.00
46614;BME280;32338;50.430;6.806;2023-08-30T12:54:43;67058.41;;;14.98;100.00